McKinney's Hourly Summary for Tuesday, March 14, 2017
Hour Temp
(f)
RH
(%)
Solar Rad.
(MJ/m2)
Rainfall
(in)
Wind
(mph)
3/14/2017 12:00 AM 42 49 0 0 0.47
3/14/2017 1:00 AM 41 52 0 0 0.74
3/14/2017 2:00 AM 40 55 0 0 0
3/14/2017 3:00 AM 37 59 0 0 0
3/14/2017 4:00 AM 36 66 0 0 0
3/14/2017 5:00 AM 36 65 0 0 0
3/14/2017 6:00 AM 36 66 0 0 0
3/14/2017 7:00 AM 35 71 0 0 0
3/14/2017 8:00 AM 34 74 0.03 0 0
3/14/2017 9:00 AM 38 62 0.49 0 0.32
3/14/2017 10:00 AM 42 52 0.86 0 1.83
3/14/2017 11:00 AM 45 48 1.63 0 3.05
3/14/2017 12:00 PM 47 45 2.41 0 2.4
3/14/2017 1:00 PM 50 43 2.7 0 1.96
3/14/2017 2:00 PM 53 39 2.77 0 2.64
3/14/2017 3:00 PM 55 38 2.59 0 3.2
3/14/2017 4:00 PM 57 35 2.36 0 3.56
3/14/2017 5:00 PM 58 34 1.68 0 3.11
3/14/2017 6:00 PM 59 32 1.06 0 2.53
3/14/2017 7:00 PM 58 32 0.34 0 1.64
3/14/2017 8:00 PM 55 37 0.02 0 0
3/14/2017 9:00 PM 53 41 0 0 0.01
3/14/2017 10:00 PM 51 48 0 0 0.01
3/14/2017 11:00 PM 50 53 0 0 0.01
Data Summary 46 49 18.94 0.00 1.15